Accueil
METAR-TAF:

METAR-TAF

Aéroports :

Paris-Orly, France

Aéroport de Paris-Orly

latitude: 48-44N, longitude: 002-24E, altitude: 89 m

Observation

Le bulletin a été fait il y a 27 minutes, à 11:30 UTC
Vent 10 kt de sud/sud-ouest
Température 23°C
Humidité 73%
Pression 1015 hPa
Visibilité 10 km ou plus
Nuages fragmentés à une hauteur de 1800 ft

METAR: LFPO 231130Z 21010KT 9999 BKN018 23/18 Q1015 NOSIG

Heure: 13:57 (11:57 UTC)

Prévision

Le bulletin a été fait il y a 57 minutes, à 11:00 UTC
Prévision valable du 23 à 12 UTC au 24 à 18 UTC
Vent 10 kt de ouest/sud-ouest
Visibilité 10 km ou plus
Nuages épars à une hauteur de 4000 ft
Evoluant progressivement
du 23 à 16 UTC au 23 à 18 UTC
Vent 8 kt de nord-ouest
Evoluant progressivement
du 24 à 14 UTC au 24 à 16 UTC
Vent 5 kt de est/nord-est

TAF: LFPO 231100Z 2312/2418 24010KT 9999 SCT040 BECMG 2316/2318 32008KT BECMG 2414/2416 06005KT

Observations et prévisions météorologiques de plus de 4000 aéroports (messages METAR et TAF).

Les stations disponibles sont représentées par des disques jaunes et rouges sur la carte.

Passer la souris dessus pour voir le nom de la station.

Cliquer dessus pour voir les observations et prévisions météorologiques.

Pour changer de carte: cliquez sur les boutons verts avec une croix noire pour zoomer, sur le bouton vert avec un tiret pour effectuer un zoom arrière, ou sur les flèches vertes pour les cartes adjacentes.


METAR-TAF: